sensor_id;sensor_type;location;lat;lon;timestamp;temperature;humidity
21487;DHT22;10905;50.822;4.336;2024-03-23T00:53:06;8.60;99.90
21487;DHT22;10905;50.822;4.336;2024-03-23T00:55:32;8.60;99.90
21487;DHT22;10905;50.822;4.336;2024-03-23T00:57:57;8.60;99.90
21487;DHT22;10905;50.822;4.336;2024-03-23T01:00:23;8.70;99.90
21487;DHT22;10905;50.822;4.336;2024-03-23T01:02:48;8.60;99.90
21487;DHT22;10905;50.822;4.336;2024-03-23T01:05:14;8.70;99.90
21487;DHT22;10905;50.822;4.336;2024-03-23T01:07:40;8.70;99.90
21487;DHT22;10905;50.822;4.336;2024-03-23T01:10:06;8.70;99.90
21487;DHT22;10905;50.822;4.336;2024-03-23T01:12:31;8.60;99.90
21487;DHT22;10905;50.822;4.336;2024-03-23T01:14:57;8.60;99.90
21487;DHT22;10905;50.822;4.336;2024-03-23T01:17:22;8.60;99.90
21487;DHT22;10905;50.822;4.336;2024-03-23T01:19:48;8.50;99.90
21487;DHT22;10905;50.822;4.336;2024-03-23T01:22:14;8.40;99.90
21487;DHT22;10905;50.822;4.336;2024-03-23T01:24:39;8.40;99.90
21487;DHT22;10905;50.822;4.336;2024-03-23T01:27:05;8.40;99.90
21487;DHT22;10905;50.822;4.336;2024-03-23T01:29:30;8.40;99.90
21487;DHT22;10905;50.822;4.336;2024-03-23T01:31:56;8.40;99.90
21487;DHT22;10905;50.822;4.336;2024-03-23T01:34:22;8.40;99.90
21487;DHT22;10905;50.822;4.336;2024-03-23T01:36:48;8.40;99.90
21487;DHT22;10905;50.822;4.336;2024-03-23T01:39:14;8.50;99.90
21487;DHT22;10905;50.822;4.336;2024-03-23T01:41:40;8.40;99.90
21487;DHT22;10905;50.822;4.336;2024-03-23T01:44:08;8.50;99.90
21487;DHT22;10905;50.822;4.336;2024-03-23T01:46:37;8.60;99.90
21487;DHT22;10905;50.822;4.336;2024-03-23T01:49:06;8.60;99.90
21487;DHT22;10905;50.822;4.336;2024-03-23T01:51:33;8.60;99.90
21487;DHT22;10905;50.822;4.336;2024-03-23T01:54:00;8.60;99.90
21487;DHT22;10905;50.822;4.336;2024-03-23T01:56:31;8.50;99.90
21487;DHT22;10905;50.822;4.336;2024-03-23T01:58:59;8.50;99.90
21487;DHT22;10905;50.822;4.336;2024-03-23T02:01:24;8.60;99.90
21487;DHT22;10905;50.822;4.336;2024-03-23T02:03:50;8.70;99.90
21487;DHT22;10905;50.822;4.336;2024-03-23T02:06:16;8.70;99.90
21487;DHT22;10905;50.822;4.336;2024-03-23T02:08:41;8.60;99.90
21487;DHT22;10905;50.822;4.336;2024-03-23T02:11:07;8.60;99.90
21487;DHT22;10905;50.822;4.336;2024-03-23T02:13:33;8.70;99.90
21487;DHT22;10905;50.822;4.336;2024-03-23T02:15:59;8.70;99.90
21487;DHT22;10905;50.822;4.336;2024-03-23T02:18:24;8.80;99.90
21487;DHT22;10905;50.822;4.336;2024-03-23T02:20:50;8.80;99.90
21487;DHT22;10905;50.822;4.336;2024-03-23T02:23:16;8.80;99.90
21487;DHT22;10905;50.822;4.336;2024-03-23T02:25:43;8.80;99.90
21487;DHT22;10905;50.822;4.336;2024-03-23T02:28:10;8.80;99.90
21487;DHT22;10905;50.822;4.336;2024-03-23T02:30:36;8.80;99.90
21487;DHT22;10905;50.822;4.336;2024-03-23T02:33:02;8.90;99.90
21487;DHT22;10905;50.822;4.336;2024-03-23T02:35:28;8.80;99.90
21487;DHT22;10905;50.822;4.336;2024-03-23T02:37:54;8.90;99.90
21487;DHT22;10905;50.822;4.336;2024-03-23T02:40:22;8.90;99.90
21487;DHT22;10905;50.822;4.336;2024-03-23T02:42:48;8.90;99.90
21487;DHT22;10905;50.822;4.336;2024-03-23T02:45:13;8.80;99.90
21487;DHT22;10905;50.822;4.336;2024-03-23T02:47:39;8.90;99.90
21487;DHT22;10905;50.822;4.336;2024-03-23T02:50:05;9.00;99.90
21487;DHT22;10905;50.822;4.336;2024-03-23T02:52:31;8.90;99.90
21487;DHT22;10905;50.822;4.336;2024-03-23T02:54:57;8.90;99.90
21487;DHT22;10905;50.822;4.336;2024-03-23T02:57:22;8.80;99.90
21487;DHT22;10905;50.822;4.336;2024-03-23T02:59:48;8.90;99.90
21487;DHT22;10905;50.822;4.336;2024-03-23T03:02:15;8.90;99.90
21487;DHT22;10905;50.822;4.336;2024-03-23T03:04:41;8.90;99.90
21487;DHT22;10905;50.822;4.336;2024-03-23T03:07:06;9.00;99.90
21487;DHT22;10905;50.822;4.336;2024-03-23T03:09:32;9.00;99.90
21487;DHT22;10905;50.822;4.336;2024-03-23T03:11:58;8.90;99.90
21487;DHT22;10905;50.822;4.336;2024-03-23T03:14:24;8.90;99.90
21487;DHT22;10905;50.822;4.336;2024-03-23T03:16:49;8.90;99.90
21487;DHT22;10905;50.822;4.336;2024-03-23T03:19:15;9.00;99.90
21487;DHT22;10905;50.822;4.336;2024-03-23T03:21:42;8.90;99.90
21487;DHT22;10905;50.822;4.336;2024-03-23T03:24:07;8.90;99.90
21487;DHT22;10905;50.822;4.336;2024-03-23T03:26:33;8.90;99.90
21487;DHT22;10905;50.822;4.336;2024-03-23T03:28:59;8.90;99.90
21487;DHT22;10905;50.822;4.336;2024-03-23T03:31:24;8.90;99.90
21487;DHT22;10905;50.822;4.336;2024-03-23T03:33:50;8.90;99.90
21487;DHT22;10905;50.822;4.336;2024-03-23T03:36:18;8.90;99.90
21487;DHT22;10905;50.822;4.336;2024-03-23T03:38:44;8.90;99.90
21487;DHT22;10905;50.822;4.336;2024-03-23T03:41:10;8.90;99.90
21487;DHT22;10905;50.822;4.336;2024-03-23T03:43:36;8.90;99.90
21487;DHT22;10905;50.822;4.336;2024-03-23T03:46:02;8.80;99.90
21487;DHT22;10905;50.822;4.336;2024-03-23T03:48:28;8.70;99.90
21487;DHT22;10905;50.822;4.336;2024-03-23T03:50:54;8.70;99.90
21487;DHT22;10905;50.822;4.336;2024-03-23T03:53:20;8.70;99.90
21487;DHT22;10905;50.822;4.336;2024-03-23T03:55:45;8.60;99.90
21487;DHT22;10905;50.822;4.336;2024-03-23T03:58:11;8.60;99.90
21487;DHT22;10905;50.822;4.336;2024-03-23T04:00:37;8.60;99.90
21487;DHT22;10905;50.822;4.336;2024-03-23T04:03:03;8.70;99.90
21487;DHT22;10905;50.822;4.336;2024-03-23T04:05:29;8.70;99.90
21487;DHT22;10905;50.822;4.336;2024-03-23T04:07:54;8.70;99.90
21487;DHT22;10905;50.822;4.336;2024-03-23T04:10:20;8.70;99.90
21487;DHT22;10905;50.822;4.336;2024-03-23T04:12:47;8.70;99.90
21487;DHT22;10905;50.822;4.336;2024-03-23T04:15:13;8.70;99.90
21487;DHT22;10905;50.822;4.336;2024-03-23T04:17:40;8.60;99.90
21487;DHT22;10905;50.822;4.336;2024-03-23T04:20:08;8.60;99.90
21487;DHT22;10905;50.822;4.336;2024-03-23T04:22:35;8.60;99.90
21487;DHT22;10905;50.822;4.336;2024-03-23T04:25:00;8.60;99.90
21487;DHT22;10905;50.822;4.336;2024-03-23T04:27:32;8.60;99.90
21487;DHT22;10905;50.822;4.336;2024-03-23T04:29:58;8.50;99.90
21487;DHT22;10905;50.822;4.336;2024-03-23T04:32:23;8.50;99.90
21487;DHT22;10905;50.822;4.336;2024-03-23T04:34:49;8.60;99.90
21487;DHT22;10905;50.822;4.336;2024-03-23T04:37:14;8.60;99.90
21487;DHT22;10905;50.822;4.336;2024-03-23T04:39:41;8.60;99.90
21487;DHT22;10905;50.822;4.336;2024-03-23T04:42:07;8.50;99.90
21487;DHT22;10905;50.822;4.336;2024-03-23T04:44:33;8.60;99.90
21487;DHT22;10905;50.822;4.336;2024-03-23T04:46:59;8.50;99.90
21487;DHT22;10905;50.822;4.336;2024-03-23T04:49:25;8.60;99.90
21487;DHT22;10905;50.822;4.336;2024-03-23T04:51:50;8.60;99.90
21487;DHT22;10905;50.822;4.336;2024-03-23T04:54:16;8.50;99.90
21487;DHT22;10905;50.822;4.336;2024-03-23T04:56:41;8.50;99.90
21487;DHT22;10905;50.822;4.336;2024-03-23T04:59:07;8.50;99.90
21487;DHT22;10905;50.822;4.336;2024-03-23T05:01:34;8.40;99.90
21487;DHT22;10905;50.822;4.336;2024-03-23T05:03:59;8.30;99.90
21487;DHT22;10905;50.822;4.336;2024-03-23T05:06:25;8.30;99.90
21487;DHT22;10905;50.822;4.336;2024-03-23T05:08:54;8.20;99.90
21487;DHT22;10905;50.822;4.336;2024-03-23T05:11:19;8.20;99.90
21487;DHT22;10905;50.822;4.336;2024-03-23T05:13:46;8.20;99.90
21487;DHT22;10905;50.822;4.336;2024-03-23T05:16:12;8.20;99.90
21487;DHT22;10905;50.822;4.336;2024-03-23T05:18:37;8.10;99.90
21487;DHT22;10905;50.822;4.336;2024-03-23T05:21:03;8.10;99.90
21487;DHT22;10905;50.822;4.336;2024-03-23T05:23:29;8.20;99.90
21487;DHT22;10905;50.822;4.336;2024-03-23T05:25:55;8.20;99.90
21487;DHT22;10905;50.822;4.336;2024-03-23T05:28:21;8.30;99.90
21487;DHT22;10905;50.822;4.336;2024-03-23T05:30:53;8.20;99.90
21487;DHT22;10905;50.822;4.336;2024-03-23T05:33:20;8.10;99.90
21487;DHT22;10905;50.822;4.336;2024-03-23T05:35:46;8.10;99.90
21487;DHT22;10905;50.822;4.336;2024-03-23T05:38:13;8.20;99.90
21487;DHT22;10905;50.822;4.336;2024-03-23T05:40:39;8.30;99.90
21487;DHT22;10905;50.822;4.336;2024-03-23T05:43:06;8.20;99.90
21487;DHT22;10905;50.822;4.336;2024-03-23T05:45:32;8.10;99.90
21487;DHT22;10905;50.822;4.336;2024-03-23T05:47:58;8.20;99.90
21487;DHT22;10905;50.822;4.336;2024-03-23T05:50:24;8.20;99.90
21487;DHT22;10905;50.822;4.336;2024-03-23T05:52:50;8.30;99.90
21487;DHT22;10905;50.822;4.336;2024-03-23T05:55:15;8.20;99.90
21487;DHT22;10905;50.822;4.336;2024-03-23T05:57:41;8.20;99.90
21487;DHT22;10905;50.822;4.336;2024-03-23T06:00:07;8.20;99.90
21487;DHT22;10905;50.822;4.336;2024-03-23T06:02:43;8.20;99.90
21487;DHT22;10905;50.822;4.336;2024-03-23T06:05:12;8.20;99.90
21487;DHT22;10905;50.822;4.336;2024-03-23T06:07:38;8.20;99.90
21487;DHT22;10905;50.822;4.336;2024-03-23T06:10:05;8.20;99.90
21487;DHT22;10905;50.822;4.336;2024-03-23T06:12:31;8.20;99.90
21487;DHT22;10905;50.822;4.336;2024-03-23T06:14:57;8.20;99.90
21487;DHT22;10905;50.822;4.336;2024-03-23T06:17:23;8.30;99.90
21487;DHT22;10905;50.822;4.336;2024-03-23T06:19:48;8.30;99.90
21487;DHT22;10905;50.822;4.336;2024-03-23T06:22:14;8.20;99.90
21487;DHT22;10905;50.822;4.336;2024-03-23T06:24:40;8.20;99.90
21487;DHT22;10905;50.822;4.336;2024-03-23T06:27:06;8.30;99.90
21487;DHT22;10905;50.822;4.336;2024-03-23T06:29:31;8.40;99.90
21487;DHT22;10905;50.822;4.336;2024-03-23T06:31:57;8.30;99.90
21487;DHT22;10905;50.822;4.336;2024-03-23T06:34:23;8.40;99.90
21487;DHT22;10905;50.822;4.336;2024-03-23T06:36:50;8.40;99.90
21487;DHT22;10905;50.822;4.336;2024-03-23T06:39:16;8.40;99.90
21487;DHT22;10905;50.822;4.336;2024-03-23T06:41:54;8.50;99.90
21487;DHT22;10905;50.822;4.336;2024-03-23T06:44:20;8.50;99.90
21487;DHT22;10905;50.822;4.336;2024-03-23T06:46:46;8.50;99.90
21487;DHT22;10905;50.822;4.336;2024-03-23T06:49:14;8.50;99.90
21487;DHT22;10905;50.822;4.336;2024-03-23T06:51:40;8.50;99.90
21487;DHT22;10905;50.822;4.336;2024-03-23T06:54:05;8.50;99.90
21487;DHT22;10905;50.822;4.336;2024-03-23T06:56:31;8.50;99.90
21487;DHT22;10905;50.822;4.336;2024-03-23T06:58:57;8.30;99.90
21487;DHT22;10905;50.822;4.336;2024-03-23T07:01:23;8.30;99.90
21487;DHT22;10905;50.822;4.336;2024-03-23T07:03:48;8.40;99.90
21487;DHT22;10905;50.822;4.336;2024-03-23T07:06:14;8.40;99.90
21487;DHT22;10905;50.822;4.336;2024-03-23T07:08:39;8.40;99.90
21487;DHT22;10905;50.822;4.336;2024-03-23T07:11:05;8.30;99.90
21487;DHT22;10905;50.822;4.336;2024-03-23T07:13:31;8.20;99.90
21487;DHT22;10905;50.822;4.336;2024-03-23T07:15:57;8.10;99.90
21487;DHT22;10905;50.822;4.336;2024-03-23T07:18:25;8.00;99.90
21487;DHT22;10905;50.822;4.336;2024-03-23T07:20:54;7.90;99.90
21487;DHT22;10905;50.822;4.336;2024-03-23T07:23:21;7.90;99.90
21487;DHT22;10905;50.822;4.336;2024-03-23T07:25:57;7.90;99.90
21487;DHT22;10905;50.822;4.336;2024-03-23T07:28:22;7.90;99.90
21487;DHT22;10905;50.822;4.336;2024-03-23T07:30:48;7.90;99.90
21487;DHT22;10905;50.822;4.336;2024-03-23T07:33:13;8.00;99.90
21487;DHT22;10905;50.822;4.336;2024-03-23T07:35:39;8.10;99.90
21487;DHT22;10905;50.822;4.336;2024-03-23T07:38:05;8.20;99.90
21487;DHT22;10905;50.822;4.336;2024-03-23T07:40:31;8.10;99.90
21487;DHT22;10905;50.822;4.336;2024-03-23T07:42:56;8.10;99.90
21487;DHT22;10905;50.822;4.336;2024-03-23T07:45:22;8.10;99.90
21487;DHT22;10905;50.822;4.336;2024-03-23T07:47:48;8.10;99.90
21487;DHT22;10905;50.822;4.336;2024-03-23T07:50:13;8.10;99.90
21487;DHT22;10905;50.822;4.336;2024-03-23T07:52:39;8.20;99.90
21487;DHT22;10905;50.822;4.336;2024-03-23T07:55:05;8.30;99.90
21487;DHT22;10905;50.822;4.336;2024-03-23T07:57:31;8.40;99.90
21487;DHT22;10905;50.822;4.336;2024-03-23T07:59:57;8.40;99.90
21487;DHT22;10905;50.822;4.336;2024-03-23T08:02:22;8.50;99.90
21487;DHT22;10905;50.822;4.336;2024-03-23T08:04:48;8.50;99.90
21487;DHT22;10905;50.822;4.336;2024-03-23T08:07:14;8.70;99.90
21487;DHT22;10905;50.822;4.336;2024-03-23T08:09:39;8.80;99.90
21487;DHT22;10905;50.822;4.336;2024-03-23T08:12:05;8.80;99.90
21487;DHT22;10905;50.822;4.336;2024-03-23T08:14:31;8.90;99.90
21487;DHT22;10905;50.822;4.336;2024-03-23T08:16:56;8.90;99.90
21487;DHT22;10905;50.822;4.336;2024-03-23T08:19:22;8.80;99.90
21487;DHT22;10905;50.822;4.336;2024-03-23T08:21:48;8.90;99.90
21487;DHT22;10905;50.822;4.336;2024-03-23T08:24:14;9.00;99.90
21487;DHT22;10905;50.822;4.336;2024-03-23T08:26:40;9.20;99.90
21487;DHT22;10905;50.822;4.336;2024-03-23T08:29:05;9.10;99.90
21487;DHT22;10905;50.822;4.336;2024-03-23T08:31:31;9.20;99.90
21487;DHT22;10905;50.822;4.336;2024-03-23T08:33:57;9.20;99.90
21487;DHT22;10905;50.822;4.336;2024-03-23T08:36:22;9.20;99.90
21487;DHT22;10905;50.822;4.336;2024-03-23T08:38:49;9.20;99.90
21487;DHT22;10905;50.822;4.336;2024-03-23T08:41:15;9.00;99.90
21487;DHT22;10905;50.822;4.336;2024-03-23T08:43:42;9.10;99.90
21487;DHT22;10905;50.822;4.336;2024-03-23T08:48:35;9.10;99.90
21487;DHT22;10905;50.822;4.336;2024-03-23T08:51:05;9.10;99.90
21487;DHT22;10905;50.822;4.336;2024-03-23T08:53:32;9.10;99.90
21487;DHT22;10905;50.822;4.336;2024-03-23T08:55:58;9.30;99.90
21487;DHT22;10905;50.822;4.336;2024-03-23T08:58:25;9.40;99.90
21487;DHT22;10905;50.822;4.336;2024-03-23T09:00:51;9.30;99.90
21487;DHT22;10905;50.822;4.336;2024-03-23T09:03:17;9.40;99.90
21487;DHT22;10905;50.822;4.336;2024-03-23T09:05:43;9.40;99.90
21487;DHT22;10905;50.822;4.336;2024-03-23T09:08:08;9.30;99.90
21487;DHT22;10905;50.822;4.336;2024-03-23T09:10:39;9.40;99.90
21487;DHT22;10905;50.822;4.336;2024-03-23T09:13:05;9.40;99.90
21487;DHT22;10905;50.822;4.336;2024-03-23T09:15:31;9.40;99.90
21487;DHT22;10905;50.822;4.336;2024-03-23T09:17:59;9.50;99.90
21487;DHT22;10905;50.822;4.336;2024-03-23T09:20:25;9.40;99.90
21487;DHT22;10905;50.822;4.336;2024-03-23T09:22:50;9.50;99.90
21487;DHT22;10905;50.822;4.336;2024-03-23T09:25:16;9.60;99.90
21487;DHT22;10905;50.822;4.336;2024-03-23T09:27:42;9.70;99.90
21487;DHT22;10905;50.822;4.336;2024-03-23T09:30:07;9.60;99.90
21487;DHT22;10905;50.822;4.336;2024-03-23T09:32:33;9.70;99.90
21487;DHT22;10905;50.822;4.336;2024-03-23T09:34:59;9.80;99.90
21487;DHT22;10905;50.822;4.336;2024-03-23T09:37:24;9.70;99.90
21487;DHT22;10905;50.822;4.336;2024-03-23T09:39:50;9.50;99.90
21487;DHT22;10905;50.822;4.336;2024-03-23T09:42:16;9.60;99.90
21487;DHT22;10905;50.822;4.336;2024-03-23T09:44:42;9.70;99.90
21487;DHT22;10905;50.822;4.336;2024-03-23T09:47:08;9.60;99.90
21487;DHT22;10905;50.822;4.336;2024-03-23T09:49:34;9.80;99.90
21487;DHT22;10905;50.822;4.336;2024-03-23T09:52:02;9.90;99.90
21487;DHT22;10905;50.822;4.336;2024-03-23T09:54:28;10.00;99.90
21487;DHT22;10905;50.822;4.336;2024-03-23T09:56:54;10.30;99.90
21487;DHT22;10905;50.822;4.336;2024-03-23T09:59:19;10.40;99.90
21487;DHT22;10905;50.822;4.336;2024-03-23T10:01:45;10.20;99.90
21487;DHT22;10905;50.822;4.336;2024-03-23T10:04:11;10.30;99.90
21487;DHT22;10905;50.822;4.336;2024-03-23T10:06:38;10.40;99.90
21487;DHT22;10905;50.822;4.336;2024-03-23T10:09:16;10.40;99.90
21487;DHT22;10905;50.822;4.336;2024-03-23T10:11:43;10.30;99.90
21487;DHT22;10905;50.822;4.336;2024-03-23T10:14:29;10.30;99.90
21487;DHT22;10905;50.822;4.336;2024-03-23T10:16:54;10.20;99.90
21487;DHT22;10905;50.822;4.336;2024-03-23T10:19:31;10.20;99.90
21487;DHT22;10905;50.822;4.336;2024-03-23T10:21:57;10.20;99.90
21487;DHT22;10905;50.822;4.336;2024-03-23T10:24:22;10.10;99.90
21487;DHT22;10905;50.822;4.336;2024-03-23T10:26:56;10.20;99.90
21487;DHT22;10905;50.822;4.336;2024-03-23T10:29:22;10.30;99.90
21487;DHT22;10905;50.822;4.336;2024-03-23T10:31:47;10.40;99.90
21487;DHT22;10905;50.822;4.336;2024-03-23T10:34:13;10.30;99.90
21487;DHT22;10905;50.822;4.336;2024-03-23T10:36:39;10.20;99.90
21487;DHT22;10905;50.822;4.336;2024-03-23T10:39:07;10.20;99.90
21487;DHT22;10905;50.822;4.336;2024-03-23T10:41:33;10.20;99.90
21487;DHT22;10905;50.822;4.336;2024-03-23T10:44:01;10.10;99.90
21487;DHT22;10905;50.822;4.336;2024-03-23T10:46:27;10.10;99.90
21487;DHT22;10905;50.822;4.336;2024-03-23T10:48:54;10.20;99.90
21487;DHT22;10905;50.822;4.336;2024-03-23T10:51:19;10.20;99.90
21487;DHT22;10905;50.822;4.336;2024-03-23T10:53:46;10.10;99.90
21487;DHT22;10905;50.822;4.336;2024-03-23T10:56:13;10.20;99.90
21487;DHT22;10905;50.822;4.336;2024-03-23T10:58:43;10.30;99.90
21487;DHT22;10905;50.822;4.336;2024-03-23T11:01:13;10.30;99.90
21487;DHT22;10905;50.822;4.336;2024-03-23T11:03:44;10.20;99.90
21487;DHT22;10905;50.822;4.336;2024-03-23T11:06:10;10.10;99.90
21487;DHT22;10905;50.822;4.336;2024-03-23T11:08:39;10.20;99.90
21487;DHT22;10905;50.822;4.336;2024-03-23T11:11:20;10.40;99.90
21487;DHT22;10905;50.822;4.336;2024-03-23T11:13:53;10.40;99.90
21487;DHT22;10905;50.822;4.336;2024-03-23T11:16:26;10.40;99.90
21487;DHT22;10905;50.822;4.336;2024-03-23T11:19:34;10.20;99.90
21487;DHT22;10905;50.822;4.336;2024-03-23T11:22:02;10.20;99.90
21487;DHT22;10905;50.822;4.336;2024-03-23T11:24:28;10.20;99.90
21487;DHT22;10905;50.822;4.336;2024-03-23T11:26:54;10.10;99.90
21487;DHT22;10905;50.822;4.336;2024-03-23T11:29:20;10.00;99.90
21487;DHT22;10905;50.822;4.336;2024-03-23T11:31:50;9.90;99.90
21487;DHT22;10905;50.822;4.336;2024-03-23T11:34:16;9.90;99.90
21487;DHT22;10905;50.822;4.336;2024-03-23T11:36:43;10.00;99.90
21487;DHT22;10905;50.822;4.336;2024-03-23T11:39:18;10.10;99.90
21487;DHT22;10905;50.822;4.336;2024-03-23T11:41:49;10.20;99.90
21487;DHT22;10905;50.822;4.336;2024-03-23T11:46:42;10.10;99.90
21487;DHT22;10905;50.822;4.336;2024-03-23T11:49:25;10.00;99.90
21487;DHT22;10905;50.822;4.336;2024-03-23T11:51:51;10.00;99.90
21487;DHT22;10905;50.822;4.336;2024-03-23T11:54:21;10.10;99.90
21487;DHT22;10905;50.822;4.336;2024-03-23T11:57:07;10.20;99.90
21487;DHT22;10905;50.822;4.336;2024-03-23T11:59:41;10.10;99.90
21487;DHT22;10905;50.822;4.336;2024-03-23T12:02:11;10.00;99.90
21487;DHT22;10905;50.822;4.336;2024-03-23T12:04:37;9.90;99.90
21487;DHT22;10905;50.822;4.336;2024-03-23T12:07:17;10.10;99.90
21487;DHT22;10905;50.822;4.336;2024-03-23T12:10:02;10.20;99.90
21487;DHT22;10905;50.822;4.336;2024-03-23T12:12:28;10.30;99.90
21487;DHT22;10905;50.822;4.336;2024-03-23T12:15:04;10.30;99.90
21487;DHT22;10905;50.822;4.336;2024-03-23T12:17:30;10.40;99.90
21487;DHT22;10905;50.822;4.336;2024-03-23T12:19:56;10.40;99.90
21487;DHT22;10905;50.822;4.336;2024-03-23T12:22:22;10.50;99.90
21487;DHT22;10905;50.822;4.336;2024-03-23T12:24:48;10.40;99.90
21487;DHT22;10905;50.822;4.336;2024-03-23T12:27:14;10.30;99.90
21487;DHT22;10905;50.822;4.336;2024-03-23T12:29:40;10.40;99.90
21487;DHT22;10905;50.822;4.336;2024-03-23T12:32:08;10.30;99.90
21487;DHT22;10905;50.822;4.336;2024-03-23T12:34:34;10.20;99.90
21487;DHT22;10905;50.822;4.336;2024-03-23T12:36:59;10.10;99.90
21487;DHT22;10905;50.822;4.336;2024-03-23T12:39:25;10.10;99.90
21487;DHT22;10905;50.822;4.336;2024-03-23T12:41:50;10.20;99.90
21487;DHT22;10905;50.822;4.336;2024-03-23T12:44:18;10.30;99.90
21487;DHT22;10905;50.822;4.336;2024-03-23T12:46:43;10.50;99.90
21487;DHT22;10905;50.822;4.336;2024-03-23T12:49:10;10.70;99.90
21487;DHT22;10905;50.822;4.336;2024-03-23T12:51:35;10.70;99.90
21487;DHT22;10905;50.822;4.336;2024-03-23T12:54:01;10.90;99.90
21487;DHT22;10905;50.822;4.336;2024-03-23T12:56:27;11.10;99.90
21487;DHT22;10905;50.822;4.336;2024-03-23T12:58:56;11.10;99.90
21487;DHT22;10905;50.822;4.336;2024-03-23T13:01:23;10.90;99.90
21487;DHT22;10905;50.822;4.336;2024-03-23T13:03:49;10.90;99.90
21487;DHT22;10905;50.822;4.336;2024-03-23T13:06:19;11.00;99.90
21487;DHT22;10905;50.822;4.336;2024-03-23T13:08:45;11.10;99.90
21487;DHT22;10905;50.822;4.336;2024-03-23T13:11:11;11.30;99.90
21487;DHT22;10905;50.822;4.336;2024-03-23T13:13:37;11.40;99.90
21487;DHT22;10905;50.822;4.336;2024-03-23T13:16:04;11.50;99.90
21487;DHT22;10905;50.822;4.336;2024-03-23T13:18:31;11.50;99.90
21487;DHT22;10905;50.822;4.336;2024-03-23T13:20:58;11.60;99.90
21487;DHT22;10905;50.822;4.336;2024-03-23T13:23:24;11.50;99.90
21487;DHT22;10905;50.822;4.336;2024-03-23T13:25:54;11.40;99.90
21487;DHT22;10905;50.822;4.336;2024-03-23T13:28:23;11.50;99.90
21487;DHT22;10905;50.822;4.336;2024-03-23T13:30:56;11.60;99.90
21487;DHT22;10905;50.822;4.336;2024-03-23T13:33:23;11.70;99.90
21487;DHT22;10905;50.822;4.336;2024-03-23T13:35:55;11.70;99.90
21487;DHT22;10905;50.822;4.336;2024-03-23T13:38:21;11.70;99.90
21487;DHT22;10905;50.822;4.336;2024-03-23T13:43:19;12.10;99.90
21487;DHT22;10905;50.822;4.336;2024-03-23T13:45:49;12.20;99.90
21487;DHT22;10905;50.822;4.336;2024-03-23T13:48:17;12.30;99.90
21487;DHT22;10905;50.822;4.336;2024-03-23T13:50:43;11.90;99.90
21487;DHT22;10905;50.822;4.336;2024-03-23T13:53:09;11.70;99.90
21487;DHT22;10905;50.822;4.336;2024-03-23T13:55:34;11.60;99.90
21487;DHT22;10905;50.822;4.336;2024-03-23T13:58:01;11.50;99.90
21487;DHT22;10905;50.822;4.336;2024-03-23T14:00:27;11.70;99.90
21487;DHT22;10905;50.822;4.336;2024-03-23T14:02:52;11.50;99.90
21487;DHT22;10905;50.822;4.336;2024-03-23T14:05:18;11.70;99.90
21487;DHT22;10905;50.822;4.336;2024-03-23T14:07:44;11.90;99.90
21487;DHT22;10905;50.822;4.336;2024-03-23T14:10:09;11.80;99.90
21487;DHT22;10905;50.822;4.336;2024-03-23T14:12:36;11.70;99.90
21487;DHT22;10905;50.822;4.336;2024-03-23T14:15:06;11.80;99.90
21487;DHT22;10905;50.822;4.336;2024-03-23T14:17:32;11.70;99.90
21487;DHT22;10905;50.822;4.336;2024-03-23T14:19:58;11.70;99.90
21487;DHT22;10905;50.822;4.336;2024-03-23T14:22:29;11.70;99.90
21487;DHT22;10905;50.822;4.336;2024-03-23T14:24:55;11.50;99.90
21487;DHT22;10905;50.822;4.336;2024-03-23T14:27:21;11.50;99.90
21487;DHT22;10905;50.822;4.336;2024-03-23T14:29:49;11.30;99.90
21487;DHT22;10905;50.822;4.336;2024-03-23T14:32:15;11.10;99.90
21487;DHT22;10905;50.822;4.336;2024-03-23T14:34:41;11.10;99.90
21487;DHT22;10905;50.822;4.336;2024-03-23T14:37:07;11.20;99.90
21487;DHT22;10905;50.822;4.336;2024-03-23T14:39:33;11.30;99.90
21487;DHT22;10905;50.822;4.336;2024-03-23T14:42:03;11.30;99.90
21487;DHT22;10905;50.822;4.336;2024-03-23T14:44:29;11.50;99.90
21487;DHT22;10905;50.822;4.336;2024-03-23T14:46:54;11.60;99.90
21487;DHT22;10905;50.822;4.336;2024-03-23T14:49:23;11.60;99.90
21487;DHT22;10905;50.822;4.336;2024-03-23T14:51:50;11.50;99.90
21487;DHT22;10905;50.822;4.336;2024-03-23T14:54:15;11.50;99.90
21487;DHT22;10905;50.822;4.336;2024-03-23T14:56:41;11.60;99.90
21487;DHT22;10905;50.822;4.336;2024-03-23T14:59:07;11.50;99.90
21487;DHT22;10905;50.822;4.336;2024-03-23T15:01:33;11.40;99.90
21487;DHT22;10905;50.822;4.336;2024-03-23T15:03:59;11.40;99.90
21487;DHT22;10905;50.822;4.336;2024-03-23T15:06:25;11.50;99.90
21487;DHT22;10905;50.822;4.336;2024-03-23T15:08:50;11.40;99.90
21487;DHT22;10905;50.822;4.336;2024-03-23T15:11:16;11.60;99.90
21487;DHT22;10905;50.822;4.336;2024-03-23T15:13:44;11.60;99.90
21487;DHT22;10905;50.822;4.336;2024-03-23T15:16:10;11.70;99.90
21487;DHT22;10905;50.822;4.336;2024-03-23T15:18:36;11.60;99.90
21487;DHT22;10905;50.822;4.336;2024-03-23T15:21:03;11.70;99.90
21487;DHT22;10905;50.822;4.336;2024-03-23T15:23:33;11.70;99.90
21487;DHT22;10905;50.822;4.336;2024-03-23T15:26:00;11.70;99.90
21487;DHT22;10905;50.822;4.336;2024-03-23T15:28:27;11.70;99.90
21487;DHT22;10905;50.822;4.336;2024-03-23T15:31:06;11.50;99.90
21487;DHT22;10905;50.822;4.336;2024-03-23T15:33:32;11.60;99.90
21487;DHT22;10905;50.822;4.336;2024-03-23T15:35:59;11.70;99.90
21487;DHT22;10905;50.822;4.336;2024-03-23T15:38:25;11.60;99.90
21487;DHT22;10905;50.822;4.336;2024-03-23T15:40:54;11.70;99.90
21487;DHT22;10905;50.822;4.336;2024-03-23T15:43:19;11.60;99.90
21487;DHT22;10905;50.822;4.336;2024-03-23T15:45:55;11.50;99.90
21487;DHT22;10905;50.822;4.336;2024-03-23T15:48:21;11.70;99.90
21487;DHT22;10905;50.822;4.336;2024-03-23T15:50:54;11.80;99.90
21487;DHT22;10905;50.822;4.336;2024-03-23T15:53:21;11.80;99.90
21487;DHT22;10905;50.822;4.336;2024-03-23T15:55:54;12.00;99.90
21487;DHT22;10905;50.822;4.336;2024-03-23T15:58:20;12.20;99.90
21487;DHT22;10905;50.822;4.336;2024-03-23T16:01:00;12.20;99.90
21487;DHT22;10905;50.822;4.336;2024-03-23T16:03:26;12.40;99.90
21487;DHT22;10905;50.822;4.336;2024-03-23T16:05:53;12.40;99.90
21487;DHT22;10905;50.822;4.336;2024-03-23T16:08:19;12.30;99.90
21487;DHT22;10905;50.822;4.336;2024-03-23T16:10:45;12.30;99.90
21487;DHT22;10905;50.822;4.336;2024-03-23T16:13:11;12.30;99.90
21487;DHT22;10905;50.822;4.336;2024-03-23T16:15:36;12.30;99.90
21487;DHT22;10905;50.822;4.336;2024-03-23T16:18:02;12.30;99.90
21487;DHT22;10905;50.822;4.336;2024-03-23T16:20:28;12.20;99.90
21487;DHT22;10905;50.822;4.336;2024-03-23T16:22:53;12.10;99.90
21487;DHT22;10905;50.822;4.336;2024-03-23T16:25:19;12.10;99.90
21487;DHT22;10905;50.822;4.336;2024-03-23T16:27:45;12.20;99.90
21487;DHT22;10905;50.822;4.336;2024-03-23T16:30:11;11.90;99.90
21487;DHT22;10905;50.822;4.336;2024-03-23T16:32:37;11.80;99.90
21487;DHT22;10905;50.822;4.336;2024-03-23T16:35:04;11.80;99.90
21487;DHT22;10905;50.822;4.336;2024-03-23T16:37:30;11.70;99.90